Saturday, December 15, 2018, 2:17 PM EST
Back to Local

KHWV, Shirley Brookhaven Airport

Location: Shirley, NY, United States Lat: 40.817
Local Time: 2:17 PM EST (19:17 GMT) Lon: -72.867
Time Zone: US/Eastern Elev: 82 ft

Show me the last for .
Show Decoded

2018-12-15 14:12 METAR KHWV 151912Z AUTO 01006KT 10SM SCT027 OVC041 11/09 A3011 RMK AO2 T01060089
                 =
2018-12-15 13:56 METAR KHWV 151856Z AUTO VRB05KT 10SM FEW005 BKN025 OVC039 11/09 A3010 RMK AO2
                 SLP193 T01060094 =
2018-12-15 12:56 METAR KHWV 151756Z AUTO VRB04KT 10SM FEW003 OVC019 10/09 A3010 RMK AO2 RAE11
                 SLP194 P0000 60000 T01000089 10100 20083 58017 =
2018-12-15 12:11 METAR KHWV 151711Z AUTO 02004KT 4SM BR SCT004 SCT013 OVC020 09/08 A3011 RMK AO2
                 RAE11 P0000 T00940083 =
2018-12-15 11:56 METAR KHWV 151656Z AUTO 02004KT 2 1/2SM -RA BR SCT003 BKN012 OVC020 09/08 A3013
                 RMK AO2 RAB55 SLP202 P0000 T00890083 =
2018-12-15 11:54 METAR KHWV 151654Z AUTO 01004KT 2 1/2SM BR SCT003 BKN012 OVC020 09/08 A3013 RMK
                 AO2 =
2018-12-15 11:22 METAR KHWV 151622Z AUTO 01005KT 6SM BR BKN004 OVC009 08/08 A3015 RMK AO2
                 T00830078 =
2018-12-15 11:07 METAR KHWV 151607Z AUTO 01006KT 7SM BKN005 BKN009 OVC035 08/08 A3015 RMK AO2
                 T00830078 =
2018-12-15 10:56 METAR KHWV 151556Z AUTO 01007KT 7SM SCT004 SCT011 OVC037 08/08 A3015 RMK AO2
                 SLP210 T00830078 =
2018-12-15 10:52 METAR KHWV 151552Z AUTO 01006KT 7SM FEW004 SCT011 OVC037 08/08 A3015 RMK AO2 =
2018-12-15 10:13 METAR KHWV 151513Z AUTO VRB03KT 7SM FEW004 OVC011 09/08 A3019 RMK AO2 T00890083
                 =
2018-12-15 09:56 METAR KHWV 151456Z AUTO 01004KT 7SM BKN011 OVC037 09/08 A3019 RMK AO2 SLP223
                 T00890083 51010 =
2018-12-15 09:22 METAR KHWV 151422Z AUTO 00000KT 5SM BR FEW010 OVC038 09/08 A3019 RMK AO2
                 T00890083 =
2018-12-15 08:56 METAR KHWV 151356Z AUTO 00000KT 8SM OVC010 09/08 A3019 RMK AO2 SLP223 T00890083
                 =
2018-12-15 08:20 METAR KHWV 151320Z AUTO 36007KT 10SM SCT006 BKN010 OVC085 09/08 A3019 RMK AO2
                 T00890083 =
2018-12-15 08:11 METAR KHWV 151311Z AUTO 01008G17KT 9SM FEW006 SCT010 BKN085 09/08 A3018 RMK AO2
                 T00890083 =
2018-12-15 07:56 METAR KHWV 151256Z AUTO 14004KT 5SM BR FEW026 SCT060 OVC085 08/08 A3016 RMK AO2
                 SLP213 T00830078 =
2018-12-15 07:49 METAR KHWV 151249Z AUTO 15011KT 4SM BR FEW016 BKN060 OVC085 08/08 A3016 RMK AO2
                 T00830078 =
2018-12-15 07:42 METAR KHWV 151242Z AUTO 16005KT 8SM FEW014 BKN026 OVC060 08/08 A3018 RMK AO2
                 T00830078 =
2018-12-15 06:56 METAR KHWV 151156Z AUTO 00000KT 9SM OVC012 09/08 A3019 RMK AO2 SLP223 60005
                 70010 T00890083 10094 20072 55009 =
2018-12-15 06:44 METAR KHWV 151144Z AUTO 35004KT 9SM BKN013 OVC019 09/08 A3020 RMK AO2 T00890083
                 =
2018-12-15 06:29 METAR KHWV 151129Z AUTO 35006KT 3SM BR SCT015 BKN021 OVC028 08/07 A3019 RMK AO2
                 T00830072 =
2018-12-15 06:12 METAR KHWV 151112Z AUTO 00000KT 1 3/4SM BR SCT017 BKN022 BKN046 08/08 A3019 RMK
                 AO2 T00780078 =
2018-12-15 06:07 METAR KHWV 151107Z AUTO 00000KT 4SM BR BKN020 BKN046 08/08 A3018 RMK AO2
                 T00830083 =
2018-12-15 06:00 METAR KHWV 151100Z AUTO 14003KT 2SM BR SCT018 BKN046 09/08 A3018 RMK AO2
                 T00890083 =
2018-12-15 05:56 METAR KHWV 151056Z AUTO 15003KT 3/4SM BR BKN017 BKN046 08/08 A3018 RMK AO2
                 SLP220 T00830078 =
2018-12-15 05:43 METAR KHWV 151043Z AUTO 00000KT 1/2SM FG BKN017 OVC025 09/08 A3018 RMK AO2
                 T00890083 =
2018-12-15 05:32 METAR KHWV 151032Z AUTO 00000KT 1 3/4SM BR OVC018 09/08 A3018 RMK AO2 T00890083
                 =
2018-12-15 05:11 METAR KHWV 151011Z AUTO 00000KT 6SM BR OVC019 09/09 A3017 RMK AO2 T00940089 =
2018-12-15 05:03 METAR KHWV 151003Z AUTO 15004KT 2SM BR OVC019 09/09 A3017 RMK AO2 T00890089 =
2018-12-15 04:56 METAR KHWV 150956Z AUTO 15006KT 3/4SM BR OVC020 09/08 A3017 RMK AO2 RAE53 PRESFR
                 SLP216 P0001 T00890083 =
2018-12-15 04:47 METAR KHWV 150947Z AUTO 15005KT 1/2SM -RA FG OVC020 08/07 A3018 RMK AO2 P0001
                 T00780072 =
2018-12-15 04:35 METAR KHWV 150935Z AUTO 00000KT 1 3/4SM -RA BR OVC021 08/08 A3020 RMK AO2 P0001
                 T00780078 =
2018-12-15 04:30 METAR KHWV 150930Z AUTO 00000KT 4SM -RA BR OVC021 08/08 A3020 RMK AO2 P0000
                 T00830078 =
2018-12-15 04:22 METAR KHWV 150922Z AUTO 00000KT 2SM -RA BR OVC022 08/08 A3020 RMK AO2 VIS 1/2V5
                 P0000 T00830078 =
2018-12-15 03:56 METAR KHWV 150856Z AUTO 00000KT 1/2SM -RA FG OVC023 08/08 A3022 RMK AO2 SLP232
                 P0003 60004 T00830078 58006 =
2018-12-15 03:23 METAR KHWV 150823Z AUTO 00000KT 1/2SM -RA FG OVC024 08/07 A3023 RMK AO2 P0002
                 T00780072 =
2018-12-15 03:13 METAR KHWV 150813Z AUTO 00000KT 1SM -RA BR FEW004 OVC024 08/08 A3023 RMK AO2
                 P0001 T00830083 =
2018-12-15 02:56 METAR KHWV 150756Z AUTO 00000KT 3/4SM -RA BR SCT004 OVC025 08/08 A3023 RMK AO2
                 SLP237 P0001 T00830078 =
2018-12-15 02:33 METAR KHWV 150733Z AUTO 00000KT 3/4SM -RA BR BKN003 OVC026 08/08 A3024 RMK AO2
                 P0001 T00830078 =
2018-12-15 02:20 METAR KHWV 150720Z AUTO 00000KT 1SM -RA BR BKN002 OVC025 08/07 A3023 RMK AO2
                 P0000 T00830072 =
2018-12-15 02:11 METAR KHWV 150711Z AUTO 00000KT 3/4SM -RA BR BKN003 OVC025 08/08 A3023 RMK AO2
                 P0000 T00830078 =
2018-12-15 01:56 METAR KHWV 150656Z AUTO 00000KT 1/2SM -RA FG FEW004 OVC025 08/07 A3023 RMK AO2
                 RAB32 SLP238 P0000 T00780072 =
2018-12-15 01:45 METAR KHWV 150645Z AUTO 00000KT 3/4SM -RA BR BKN027 OVC037 08/08 A3023 RMK AO2
                 RAB32 P0000 T00830078 =
2018-12-15 01:33 METAR KHWV 150633Z AUTO 00000KT 1/2SM -RA FG SCT002 BKN036 OVC043 08/08 A3023
                 RMK AO2 RAB32 P0000 T00830078 =
2018-12-15 01:12 METAR KHWV 150612Z AUTO 00000KT 1/2SM FG OVC002 08/08 A3023 RMK AO2 T00830078 =
2018-12-15 00:56 METAR KHWV 150556Z AUTO 00000KT 3/4SM BR BKN003 OVC045 08/08 A3023 RMK AO2 RAE00
                 SLP238 P0000 60005 T00830078 10094 20072 58021 =
2018-12-15 00:53 METAR KHWV 150553Z AUTO 00000KT 3/4SM BR BKN003 OVC045 08/08 A3024 RMK AO2 RAE00
                 P0000 =
2018-12-15 00:44 METAR KHWV 150544Z AUTO 00000KT 2 1/2SM BR BKN004 BKN046 08/08 A3024 RMK AO2
                 RAE00 CIG 002V016 P0000 T00830078 =
2018-12-15 00:17 METAR KHWV 150517Z AUTO 18004KT 5SM BR SCT004 BKN075 OVC095 08/08 A3025 RMK AO2
                 RAE00 P0000 T00830083 =
2018-12-14 23:56 METAR KHWV 150456Z AUTO 19003KT 7SM -RA BKN004 BKN040 OVC048 09/08 A3026 RMK AO2
                 SLP248 P0000 T00890083 400941011 =
2018-12-14 23:47 METAR KHWV 150447Z AUTO 20003KT 4SM -RA BR BKN004 BKN046 OVC085 09/08 A3026 RMK
                 AO2 P0000 T00890083 =
2018-12-14 23:31 METAR KHWV 150431Z AUTO 00000KT 2SM -RA BR FEW006 BKN070 OVC085 09/08 A3026 RMK
                 AO2 P0000 T00890078 =
2018-12-14 22:56 METAR KHWV 150356Z AUTO 17004KT 9SM -RA FEW043 OVC090 09/08 A3027 RMK AO2 SLP252
                 P0001 T00890083 =
2018-12-14 21:56 METAR KHWV 150256Z AUTO 17006KT 10SM -RA OVC085 09/08 A3030 RMK AO2 SLP259 P0001
                 60004 T00890083 58016 =
2018-12-14 20:56 METAR KHWV 150156Z AUTO 16005KT 7SM -RA OVC085 08/07 A3031 RMK AO2 SLP264 P0002
                 T00780072 =
2018-12-14 19:56 METAR KHWV 150056Z AUTO 14003KT 4SM -RA BR OVC085 08/07 A3034 RMK AO2 RAB33
                 SLP272 P0001 T00780072 =
2018-12-14 18:56 METAR KHWV 142356Z AUTO 15004KT 9SM SCT095 OVC110 08/07 A3035 RMK AO2 RAB16E48
                 SLP276 P0000 60000 T00780072 10094 20078 58013 =
2018-12-14 17:56 METAR KHWV 142256Z AUTO 00000KT 10SM FEW070 OVC100 08/06 A3036 RMK AO2 SLP280
                 T00780061 =
2018-12-14 16:56 METAR KHWV 142156Z AUTO 00000KT 10SM OVC070 08/06 A3038 RMK AO2 SLP288 T00830061
                 =
2018-12-14 15:56 METAR KHWV 142056Z AUTO 13003KT 10SM FEW013 BKN070 09/06 A3038 RMK AO2 SLP289
                 T00890061 58002 =
2018-12-14 15:47 METAR KHWV 142047Z AUTO 14004KT 10SM SCT013 BKN075 08/06 A3039 RMK AO2 T00830061
                 =
2018-12-14 14:56 METAR KHWV 141956Z AUTO 15005KT 10SM OVC020 09/06 A3039 RMK AO2 SLP292 T00940061
                 =

Support USWX by starting your Amazon purchase here.